Time;durP1;ratioP1;P1;durP2;ratioP2;P2;SDS_P1;SDS_P2;PMS_P1;PMS_P2;Temp;Humidity;BMP_temperature;BMP_pressure;BME280_temperature;BME280_humidity;BME280_pressure;Samples;Min_cycle;Max_cycle;Signal;HPM_P1;HPM_P2
2022/01/03 00:00:27;;;;;;;10.38;1.77;;;13.20;86.10;;;;;;4953675;28;20023;-65
2022/01/03 00:02:54;;;;;;;10.15;2.17;;;13.10;86.30;;;;;;4951635;28;20038;-65
2022/01/03 00:05:20;;;;;;;12.55;1.80;;;13.20;86.30;;;;;;4950536;28;20046;-65
2022/01/03 00:07:46;;;;;;;14.85;2.22;;;13.20;86.50;;;;;;4955689;28;20424;-65
2022/01/03 00:10:14;;;;;;;10.95;2.00;;;13.20;86.80;;;;;;4953955;28;20027;-65
2022/01/03 00:12:41;;;;;;;16.17;2.20;;;13.20;86.80;;;;;;4953836;28;20033;-65
2022/01/03 00:15:09;;;;;;;13.02;2.17;;;13.30;86.60;;;;;;4954064;28;20479;-65
2022/01/03 00:17:36;;;;;;;17.02;2.53;;;13.20;86.90;;;;;;4950075;28;20046;-65
2022/01/03 00:20:02;;;;;;;10.52;1.80;;;13.20;86.70;;;;;;4954800;28;20046;-65
2022/01/03 00:22:33;;;;;;;12.85;1.98;;;13.20;86.40;;;;;;4954177;28;20051;-65
2022/01/03 00:25:03;;;;;;;12.73;2.00;;;13.20;86.70;;;;;;4953811;28;20076;-65
2022/01/03 00:27:44;;;;;;;13.63;2.35;;;13.10;86.80;;;;;;4953966;28;20058;-65
2022/01/03 00:30:11;;;;;;;13.38;2.40;;;13.20;86.70;;;;;;4953770;28;20548;-65
2022/01/03 00:32:38;;;;;;;10.88;1.83;;;13.20;87.00;;;;;;4949950;28;20050;-65
2022/01/03 00:35:05;;;;;;;15.00;1.80;;;13.10;86.90;;;;;;4954245;28;20015;-65
2022/01/03 00:37:33;;;;;;;12.27;1.95;;;13.20;87.00;;;;;;4953145;28;20031;-65
2022/01/03 00:39:59;;;;;;;10.50;1.75;;;13.20;86.80;;;;;;4953587;28;20034;-63
2022/01/03 00:42:25;;;;;;;15.63;2.40;;;13.20;87.20;;;;;;4953509;28;20053;-64
2022/01/03 00:44:53;;;;;;;13.27;1.80;;;13.20;87.20;;;;;;4952041;28;20543;-64
2022/01/03 00:47:19;;;;;;;11.18;1.90;;;13.10;87.10;;;;;;4950414;28;20439;-64
2022/01/03 00:49:46;;;;;;;12.35;1.85;;;13.10;87.10;;;;;;4955601;28;20077;-64
2022/01/03 00:52:12;;;;;;;9.80;1.65;;;13.10;87.30;;;;;;4952229;28;20484;-65
2022/01/03 00:54:37;;;;;;;12.35;2.20;;;13.10;87.30;;;;;;4953406;28;20031;-65
2022/01/03 00:57:07;;;;;;;8.25;1.80;;;13.20;87.30;;;;;;4952121;28;20019;-65
2022/01/03 00:59:44;;;;;;;9.93;2.22;;;13.20;87.50;;;;;;4934638;28;20561;-65
2022/01/03 01:02:11;;;;;;;11.35;1.95;;;13.10;87.00;;;;;;4952099;28;20404;-64
2022/01/03 01:04:38;;;;;;;12.30;1.80;;;13.20;87.50;;;;;;4954512;28;20561;-64
2022/01/03 01:07:06;;;;;;;8.27;1.60;;;13.20;87.20;;;;;;4953502;28;20034;-65
2022/01/03 01:09:32;;;;;;;11.90;1.75;;;13.20;87.40;;;;;;4953251;28;20023;-65
2022/01/03 01:12:00;;;;;;;7.65;1.58;;;13.20;87.20;;;;;;4952358;28;20422;-65
2022/01/03 01:14:28;;;;;;;10.15;1.83;;;13.20;87.40;;;;;;4949535;28;20033;-65
2022/01/03 01:16:54;;;;;;;10.50;2.13;;;13.20;87.20;;;;;;4954716;28;20023;-65
2022/01/03 01:19:21;;;;;;;12.35;1.67;;;13.20;87.20;;;;;;4953134;28;20063;-65
2022/01/03 01:21:51;;;;;;;9.27;1.70;;;13.20;87.30;;;;;;4951819;28;20089;-65
2022/01/03 01:24:20;;;;;;;10.95;1.65;;;13.20;87.50;;;;;;4953050;28;20039;-65
2022/01/03 01:29:30;;;;;;;10.23;1.40;;;13.20;87.30;;;;;;4933686;28;20133;-65
2022/01/03 01:32:02;;;;;;;9.80;2.00;;;13.20;87.30;;;;;;4954926;28;20471;-65
2022/01/03 01:34:29;;;;;;;9.23;1.75;;;13.20;87.50;;;;;;4956890;28;20403;-65
2022/01/03 01:37:00;;;;;;;9.75;1.80;;;13.20;87.20;;;;;;4956388;28;20023;-65
2022/01/03 01:39:27;;;;;;;12.55;2.00;;;13.20;87.30;;;;;;4956373;28;20023;-65
2022/01/03 01:41:56;;;;;;;8.90;1.73;;;13.20;87.20;;;;;;4954799;28;20072;-65
2022/01/03 01:44:24;;;;;;;9.90;1.85;;;13.20;87.00;;;;;;4952550;28;20032;-65
2022/01/03 01:46:54;;;;;;;11.32;1.83;;;13.10;87.10;;;;;;4958243;28;20116;-65
2022/01/03 01:49:22;;;;;;;12.77;2.17;;;13.20;87.40;;;;;;4956013;28;20031;-65
2022/01/03 01:52:00;;;;;;;10.40;1.50;;;13.20;87.30;;;;;;4956064;28;20110;-65
2022/01/03 01:54:33;;;;;;;13.07;2.05;;;13.20;87.50;;;;;;4956125;28;20472;-64
2022/01/03 01:57:14;;;;;;;7.72;1.52;;;13.20;87.40;;;;;;4955393;28;20560;-65
2022/01/03 01:59:59;;;;;;;8.32;1.70;;;13.30;87.50;;;;;;4938623;28;20020;-65
2022/01/03 02:02:55;;;;;;;9.93;1.75;;;13.20;87.50;;;;;;4952028;28;20439;-65
2022/01/03 02:05:36;;;;;;;10.32;2.08;;;13.10;87.60;;;;;;4966873;28;20105;-65
2022/01/03 02:08:07;;;;;;;12.63;1.83;;;13.10;87.50;;;;;;4965409;28;20511;-64
2022/01/03 02:10:39;;;;;;;17.58;2.17;;;13.10;87.50;;;;;;4955105;28;20040;-65
2022/01/03 02:13:05;;;;;;;11.18;1.88;;;13.10;87.40;;;;;;4955503;28;20020;-65
2022/01/03 02:15:32;;;;;;;10.10;1.70;;;13.10;87.70;;;;;;4955840;28;20031;-65
2022/01/03 02:17:58;;;;;;;11.02;2.22;;;13.10;87.50;;;;;;4955042;28;20018;-63
2022/01/03 02:20:26;;;;;;;11.35;1.60;;;13.10;87.60;;;;;;4952346;28;20085;-63
2022/01/03 02:22:53;;;;;;;11.32;1.65;;;13.10;87.70;;;;;;4957747;28;20506;-63
2022/01/03 02:25:20;;;;;;;10.57;2.20;;;13.10;87.70;;;;;;4955373;28;20496;-63
2022/01/03 02:27:49;;;;;;;14.23;1.55;;;13.10;87.30;;;;;;4955004;28;20153;-64
2022/01/03 02:30:18;;;;;;;9.63;1.70;;;13.10;87.40;;;;;;4955594;28;20019;-64
2022/01/03 02:32:44;;;;;;;10.48;2.00;;;13.10;87.90;;;;;;4952828;28;20023;-64
2022/01/03 02:35:10;;;;;;;14.98;2.40;;;13.10;87.90;;;;;;4954848;28;20388;-64
2022/01/03 02:37:38;;;;;;;10.10;1.73;;;13.20;88.50;;;;;;4956679;28;20031;-65
2022/01/03 02:40:06;;;;;;;13.45;2.15;;;13.10;87.80;;;;;;4955434;28;20031;-64
2022/01/03 02:42:32;;;;;;;12.48;1.85;;;13.10;87.50;;;;;;4955098;28;20110;-64
2022/01/03 02:45:08;;;;;;;11.75;2.20;;;13.10;88.10;;;;;;4954388;28;20121;-65
2022/01/03 02:47:34;;;;;;;15.57;2.40;;;13.00;87.90;;;;;;4936618;28;20024;-65
2022/01/03 02:50:00;;;;;;;11.82;2.00;;;13.00;88.00;;;;;;4956794;28;20040;-64
2022/01/03 02:52:26;;;;;;;13.93;2.08;;;13.00;88.30;;;;;;4953880;28;20031;-64
2022/01/03 02:54:52;;;;;;;7.57;1.77;;;13.00;88.10;;;;;;4955219;28;20369;-64
2022/01/03 02:57:23;;;;;;;10.95;1.92;;;12.90;88.30;;;;;;4954957;28;20380;-64
2022/01/03 02:59:58;;;;;;;10.52;2.10;;;12.90;88.60;;;;;;4953233;28;20054;-65
2022/01/03 03:02:25;;;;;;;12.85;1.90;;;13.00;88.80;;;;;;4951310;28;22275;-64
2022/01/03 03:04:53;;;;;;;10.68;1.70;;;13.00;88.30;;;;;;4956881;28;20031;-64
2022/01/03 03:07:21;;;;;;;11.10;1.75;;;13.10;88.60;;;;;;4954795;28;20032;-64
2022/01/03 03:09:46;;;;;;;13.63;1.52;;;13.00;88.50;;;;;;4954885;28;20027;-64
2022/01/03 03:12:12;;;;;;;12.80;2.15;;;13.10;88.70;;;;;;4953098;28;20051;-64
2022/01/03 03:14:38;;;;;;;10.05;1.48;;;13.10;88.70;;;;;;4951406;28;20030;-64
2022/01/03 03:17:04;;;;;;;16.27;2.50;;;13.10;88.70;;;;;;4953920;28;20031;-64
2022/01/03 03:19:30;;;;;;;12.55;1.77;;;13.10;88.80;;;;;;4955661;28;20039;-64
2022/01/03 03:21:56;;;;;;;13.32;1.77;;;13.00;88.30;;;;;;4954788;28;20031;-64
2022/01/03 03:24:21;;;;;;;12.43;1.75;;;13.00;88.50;;;;;;4954859;28;20395;-64
2022/01/03 03:26:47;;;;;;;10.02;1.55;;;13.10;88.80;;;;;;4950813;28;20114;-64
2022/01/03 03:29:13;;;;;;;10.65;1.80;;;13.00;88.50;;;;;;4953123;28;20028;-64
2022/01/03 03:31:38;;;;;;;8.85;1.30;;;13.10;88.60;;;;;;4956086;28;20495;-64
2022/01/03 03:34:05;;;;;;;10.77;1.77;;;13.10;88.80;;;;;;4954531;28;20031;-64
2022/01/03 03:36:31;;;;;;;14.68;1.83;;;13.10;88.80;;;;;;4954546;28;20114;-64
2022/01/03 03:38:57;;;;;;;9.13;1.42;;;13.00;88.30;;;;;;4952339;28;20153;-64
2022/01/03 03:41:22;;;;;;;13.45;1.77;;;13.00;88.50;;;;;;4950674;28;20137;-64
2022/01/03 03:43:48;;;;;;;14.93;1.70;;;13.00;88.80;;;;;;4956294;28;20035;-64
2022/01/03 03:46:14;;;;;;;11.65;1.80;;;13.00;88.50;;;;;;4954246;28;20031;-64
2022/01/03 03:48:40;;;;;;;12.38;1.63;;;13.00;88.80;;;;;;4954367;28;20035;-64
2022/01/03 03:51:05;;;;;;;11.60;1.98;;;13.00;88.80;;;;;;4954273;28;20552;-64
2022/01/03 03:53:31;;;;;;;12.77;1.88;;;13.00;88.80;;;;;;4950299;28;20020;-64
2022/01/03 03:55:57;;;;;;;11.00;1.80;;;13.00;89.00;;;;;;4955100;28;20035;-64
2022/01/03 03:58:23;;;;;;;10.38;1.88;;;13.00;88.90;;;;;;4954316;28;20063;-64
2022/01/03 04:00:48;;;;;;;8.57;1.50;;;13.00;88.80;;;;;;4954201;28;20031;-64
2022/01/03 04:03:14;;;;;;;10.02;1.38;;;13.00;88.80;;;;;;4953864;28;20019;-65
2022/01/03 04:05:40;;;;;;;10.88;1.65;;;13.00;88.80;;;;;;4951079;28;20488;-64
2022/01/03 04:08:05;;;;;;;10.30;1.58;;;13.00;88.80;;;;;;4954633;28;20496;-64
2022/01/03 04:10:31;;;;;;;9.07;1.65;;;13.00;88.80;;;;;;4954323;28;20118;-64
2022/01/03 04:12:57;;;;;;;10.30;1.70;;;13.00;88.80;;;;;;4952939;28;20390;-64
2022/01/03 04:15:23;;;;;;;9.77;1.83;;;13.10;88.90;;;;;;4954061;28;20088;-64
2022/01/03 04:17:48;;;;;;;9.77;1.55;;;13.10;88.90;;;;;;4952151;28;20364;-64
2022/01/03 04:20:16;;;;;;;8.02;1.40;;;13.10;88.80;;;;;;4951167;28;20031;-64
2022/01/03 04:22:42;;;;;;;9.82;1.40;;;13.10;88.90;;;;;;4953943;28;20089;-64
2022/01/03 04:25:09;;;;;;;11.32;2.13;;;13.10;89.80;;;;;;4953434;28;20031;-64
2022/01/03 04:27:35;;;;;;;9.95;1.60;;;13.00;88.70;;;;;;4953987;28;20088;-64
2022/01/03 04:30:01;;;;;;;14.52;1.73;;;13.00;88.80;;;;;;4953527;28;20491;-64
2022/01/03 04:32:26;;;;;;;10.57;1.50;;;13.10;88.90;;;;;;4948978;28;20555;-64
2022/01/03 04:34:52;;;;;;;7.45;1.50;;;13.10;88.90;;;;;;4955798;28;20027;-64
2022/01/03 04:37:17;;;;;;;13.18;2.17;;;13.10;88.90;;;;;;4953845;28;20492;-64
2022/01/03 04:39:44;;;;;;;11.55;2.03;;;13.00;88.80;;;;;;4952305;28;20030;-64
2022/01/03 04:42:09;;;;;;;7.53;1.58;;;13.00;88.80;;;;;;4953814;28;20464;-64
2022/01/03 04:44:35;;;;;;;11.10;1.77;;;13.00;88.80;;;;;;4949920;28;20035;-64
2022/01/03 04:47:01;;;;;;;11.70;1.80;;;13.00;88.90;;;;;;4955362;28;20110;-64
2022/01/03 04:49:27;;;;;;;9.50;1.83;;;13.10;89.40;;;;;;4952525;28;20038;-64
2022/01/03 04:51:52;;;;;;;9.18;1.73;;;13.00;88.90;;;;;;4953492;28;20114;-64
2022/01/03 04:54:18;;;;;;;11.32;2.20;;;13.10;89.10;;;;;;4953228;28;20073;-64
2022/01/03 04:56:44;;;;;;;10.30;1.40;;;13.10;88.90;;;;;;4951014;28;20407;-64
2022/01/03 04:59:09;;;;;;;11.48;1.63;;;13.10;89.10;;;;;;4953129;28;20106;-64
2022/01/03 05:01:35;;;;;;;11.10;1.90;;;13.10;89.30;;;;;;4953273;28;20077;-64
2022/01/03 05:04:01;;;;;;;15.50;1.85;;;13.00;89.10;;;;;;4953305;28;20046;-64
2022/01/03 05:06:26;;;;;;;12.32;1.70;;;13.00;89.40;;;;;;4953433;28;20031;-64
2022/01/03 05:08:52;;;;;;;10.57;1.73;;;13.00;89.30;;;;;;4953174;28;20399;-64
2022/01/03 05:11:18;;;;;;;13.93;2.05;;;13.10;89.30;;;;;;4954119;28;20463;-64
2022/01/03 05:13:43;;;;;;;10.60;1.85;;;13.10;89.30;;;;;;4957490;28;20054;-64
2022/01/03 05:16:09;;;;;;;13.65;1.90;;;13.10;89.20;;;;;;4956804;28;20110;-64
2022/01/03 05:18:35;;;;;;;9.88;1.30;;;13.10;89.30;;;;;;4956731;28;20027;-64
2022/01/03 05:21:01;;;;;;;14.52;1.73;;;13.10;89.40;;;;;;4955155;28;20088;-64
2022/01/03 05:23:26;;;;;;;11.90;1.52;;;13.10;89.40;;;;;;4951295;28;20388;-63
2022/01/03 05:25:52;;;;;;;8.48;1.42;;;13.10;89.50;;;;;;4958602;28;20035;-65
2022/01/03 05:28:18;;;;;;;10.57;1.58;;;13.10;89.50;;;;;;4956763;28;20519;-65
2022/01/03 05:30:44;;;;;;;11.55;1.70;;;13.10;89.20;;;;;;4956656;28;20027;-65
2022/01/03 05:33:09;;;;;;;10.18;1.60;;;13.00;89.30;;;;;;4956639;28;20015;-64
2022/01/03 05:35:35;;;;;;;10.20;1.77;;;13.10;89.60;;;;;;4952957;28;20400;-65
2022/01/03 05:38:01;;;;;;;10.07;1.50;;;13.10;89.80;;;;;;4957793;28;20361;-65
2022/01/03 05:40:28;;;;;;;10.32;1.58;;;13.10;89.60;;;;;;4955371;28;20040;-65
2022/01/03 05:42:53;;;;;;;15.65;2.70;;;13.10;89.60;;;;;;4956536;28;20502;-65
2022/01/03 05:45:20;;;;;;;17.90;2.17;;;13.10;89.70;;;;;;4956255;28;20122;-65
2022/01/03 05:47:47;;;;;;;9.82;1.55;;;13.10;89.30;;;;;;4953990;28;20023;-65
2022/01/03 05:50:17;;;;;;;9.55;1.65;;;13.10;89.40;;;;;;4955226;28;20037;-63
2022/01/03 05:52:44;;;;;;;11.63;1.80;;;13.10;90.00;;;;;;4955911;28;20027;-65
2022/01/03 05:55:10;;;;;;;13.68;2.25;;;13.10;89.90;;;;;;4956170;28;20038;-65
2022/01/03 05:57:36;;;;;;;7.68;1.83;;;13.10;89.70;;;;;;4956217;28;20140;-64
2022/01/03 06:00:04;;;;;;;10.20;1.77;;;13.10;89.80;;;;;;4956084;28;20555;-64
2022/01/03 06:02:36;;;;;;;13.23;1.60;;;13.10;89.80;;;;;;4936688;28;20027;-65
2022/01/03 06:05:02;;;;;;;11.18;1.83;;;13.10;89.60;;;;;;4957406;28;20376;-65
2022/01/03 06:07:28;;;;;;;12.70;1.88;;;13.10;89.70;;;;;;4956524;28;20110;-65
2022/01/03 06:09:54;;;;;;;11.68;1.60;;;13.10;89.80;;;;;;4956139;28;20130;-65
2022/01/03 06:12:20;;;;;;;11.43;1.65;;;13.00;89.80;;;;;;4954619;28;20051;-65
2022/01/03 06:14:47;;;;;;;12.50;2.00;;;13.00;89.90;;;;;;4953533;28;20027;-65
2022/01/03 06:17:14;;;;;;;10.52;1.52;;;13.00;90.10;;;;;;4954665;28;20427;-65
2022/01/03 06:19:40;;;;;;;7.97;1.50;;;13.00;90.00;;;;;;4956722;28;20039;-65
2022/01/03 06:22:11;;;;;;;9.32;1.42;;;13.10;90.10;;;;;;4955694;28;20027;-63
2022/01/03 06:24:38;;;;;;;8.93;1.55;;;13.00;90.00;;;;;;4955760;28;20043;-65
2022/01/03 06:27:04;;;;;;;10.57;2.10;;;13.10;89.80;;;;;;4955709;28;20133;-66
2022/01/03 06:29:30;;;;;;;13.60;3.03;;;13.10;90.00;;;;;;4951769;28;20028;-65
2022/01/03 06:31:57;;;;;;;14.55;1.77;;;13.00;90.00;;;;;;4957728;28;20051;-65
2022/01/03 06:34:23;;;;;;;8.48;1.60;;;13.00;90.00;;;;;;4954189;28;20085;-65
2022/01/03 06:36:49;;;;;;;11.55;2.13;;;13.00;90.00;;;;;;4955578;28;20488;-65
2022/01/03 06:39:14;;;;;;;9.68;1.85;;;13.00;90.00;;;;;;4955579;28;20038;-65
2022/01/03 06:41:41;;;;;;;11.68;1.77;;;13.00;90.10;;;;;;4952453;28;20026;-63
2022/01/03 06:44:07;;;;;;;11.90;1.60;;;13.00;90.10;;;;;;4955571;28;20038;-65
2022/01/03 06:46:33;;;;;;;9.45;1.63;;;13.00;90.00;;;;;;4954821;28;20031;-63
2022/01/03 06:49:00;;;;;;;9.23;1.67;;;13.00;90.10;;;;;;4955157;28;20369;-64
2022/01/03 06:51:31;;;;;;;9.82;1.55;;;13.00;90.10;;;;;;4955486;28;20024;-64
2022/01/03 06:53:57;;;;;;;8.88;1.52;;;13.00;90.10;;;;;;4953118;28;20031;-64
2022/01/03 06:56:22;;;;;;;11.32;1.90;;;13.00;90.50;;;;;;4952012;28;20038;-64
2022/01/03 06:58:48;;;;;;;13.30;1.92;;;13.00;90.00;;;;;;4957194;28;20023;-64
2022/01/03 07:01:14;;;;;;;9.18;1.27;;;13.00;90.00;;;;;;4955219;28;20392;-64
2022/01/03 07:03:39;;;;;;;12.85;1.60;;;13.00;90.10;;;;;;4954668;28;20122;-64
2022/01/03 07:06:05;;;;;;;12.07;2.20;;;13.00;90.10;;;;;;4955255;28;20023;-64
2022/01/03 07:08:30;;;;;;;11.38;2.10;;;13.00;90.20;;;;;;4951147;28;20031;-64
2022/01/03 07:10:56;;;;;;;9.00;1.60;;;13.00;90.30;;;;;;4956843;28;20054;-64
2022/01/03 07:13:24;;;;;;;11.07;1.67;;;13.00;90.30;;;;;;4955197;28;20031;-64
2022/01/03 07:21:18;;;;;;;14.23;2.20;;;13.00;90.30;;;;;;4955071;28;20041;-64
2022/01/03 07:23:44;;;;;;;11.60;1.65;;;13.00;90.20;;;;;;4952240;28;20422;-63
2022/01/03 07:26:10;;;;;;;11.82;1.70;;;12.90;90.40;;;;;;4954461;28;20460;-64
2022/01/03 07:28:36;;;;;;;9.60;1.60;;;12.90;90.40;;;;;;4955785;28;20027;-64
2022/01/03 07:31:01;;;;;;;10.43;1.60;;;13.00;90.60;;;;;;4953850;28;20042;-64
2022/01/03 07:33:27;;;;;;;13.80;2.25;;;13.00;90.40;;;;;;4954574;28;20062;-64
2022/01/03 07:35:52;;;;;;;10.77;1.70;;;13.00;90.60;;;;;;4953213;28;20042;-64
2022/01/03 07:38:18;;;;;;;13.57;2.28;;;13.00;90.40;;;;;;4951981;28;20027;-64
2022/01/03 07:40:44;;;;;;;11.95;2.13;;;13.00;90.50;;;;;;4956609;28;20514;-64
2022/01/03 07:43:09;;;;;;;10.73;1.90;;;13.00;90.30;;;;;;4954630;28;20085;-64
2022/01/03 07:45:35;;;;;;;16.27;2.60;;;13.10;90.50;;;;;;4954291;28;20492;-64
2022/01/03 07:48:01;;;;;;;11.52;2.20;;;13.10;90.40;;;;;;4953884;28;20027;-64
2022/01/03 07:50:28;;;;;;;9.45;1.67;;;13.00;90.40;;;;;;4950419;28;20027;-64
2022/01/03 07:52:58;;;;;;;9.07;1.33;;;13.10;90.50;;;;;;4956267;28;20026;-64
2022/01/03 07:55:27;;;;;;;11.77;1.73;;;13.10;90.50;;;;;;4953378;28;20450;-64
2022/01/03 07:57:54;;;;;;;16.45;2.50;;;13.10;90.50;;;;;;4950296;28;20556;-64
2022/01/03 08:00:21;;;;;;;12.30;2.10;;;13.00;90.40;;;;;;4949775;28;20039;-64
2022/01/03 08:02:47;;;;;;;11.38;1.55;;;13.00;90.60;;;;;;4949043;28;20028;-64
2022/01/03 08:05:15;;;;;;;11.93;1.73;;;13.00;90.50;;;;;;4950103;28;20126;-64
2022/01/03 08:07:42;;;;;;;10.90;1.80;;;13.00;90.50;;;;;;4933830;28;20027;-65
2022/01/03 08:10:09;;;;;;;8.98;1.80;;;13.00;90.40;;;;;;4927541;28;20054;-64
2022/01/03 08:12:35;;;;;;;9.93;1.70;;;13.00;90.60;;;;;;4933584;28;20034;-65
2022/01/03 08:15:00;;;;;;;12.60;2.13;;;13.00;90.60;;;;;;4924024;28;20035;-64
2022/01/03 08:17:26;;;;;;;12.32;1.52;;;13.00;90.80;;;;;;4912499;28;20117;-65
2022/01/03 08:19:52;;;;;;;11.85;2.20;;;13.00;91.30;;;;;;4926883;28;20510;-64
2022/01/03 08:22:18;;;;;;;12.20;2.08;;;13.00;90.70;;;;;;4954759;28;20388;-64
2022/01/03 08:24:44;;;;;;;13.05;1.73;;;13.00;90.70;;;;;;4924931;28;20731;-63
2022/01/03 08:27:10;;;;;;;8.48;1.70;;;13.10;90.70;;;;;;4943139;28;20035;-63
2022/01/03 08:29:36;;;;;;;11.52;1.98;;;13.10;90.80;;;;;;4935672;28;20031;-63
2022/01/03 08:32:02;;;;;;;8.57;1.98;;;13.10;90.70;;;;;;4954633;28;20058;-65
2022/01/03 08:34:27;;;;;;;9.45;1.65;;;13.20;90.70;;;;;;4950894;28;20122;-64
2022/01/03 08:36:53;;;;;;;11.65;1.80;;;13.10;90.60;;;;;;4953720;28;20444;-64
2022/01/03 08:39:19;;;;;;;6.85;1.75;;;13.10;90.70;;;;;;4951488;28;20035;-64
2022/01/03 08:41:45;;;;;;;10.52;1.83;;;13.20;90.80;;;;;;4917923;28;20531;-64
2022/01/03 08:44:11;;;;;;;12.20;1.60;;;13.20;90.70;;;;;;4886914;28;20035;-63
2022/01/03 08:46:36;;;;;;;12.07;1.77;;;13.20;90.70;;;;;;4906422;28;20062;-64
2022/01/03 08:49:03;;;;;;;8.68;1.35;;;13.20;90.60;;;;;;4906987;28;20023;-64
2022/01/03 08:51:28;;;;;;;9.25;1.70;;;13.20;90.80;;;;;;4908171;28;20554;-64
2022/01/03 08:53:54;;;;;;;12.48;1.55;;;13.20;90.90;;;;;;4919247;28;20043;-66
2022/01/03 08:56:20;;;;;;;8.25;1.35;;;13.20;90.90;;;;;;4942370;28;20019;-64
2022/01/03 08:58:46;;;;;;;8.75;1.60;;;13.20;90.80;;;;;;4964251;28;20519;-64
2022/01/03 09:01:12;;;;;;;18.42;2.28;;;13.30;90.80;;;;;;4954183;28;20034;-65
2022/01/03 09:03:37;;;;;;;13.15;1.90;;;13.30;90.70;;;;;;4957014;28;20035;-65
2022/01/03 09:06:04;;;;;;;10.13;2.00;;;13.30;90.80;;;;;;4962901;28;20041;-65
2022/01/03 09:08:30;;;;;;;9.60;1.80;;;13.30;90.70;;;;;;4952024;28;20123;-64
2022/01/03 09:10:56;;;;;;;8.13;1.75;;;13.30;90.60;;;;;;4965287;28;20125;-64
2022/01/03 09:13:22;;;;;;;9.55;2.20;;;13.40;90.70;;;;;;4953431;28;20027;-65
2022/01/03 09:15:48;;;;;;;12.70;1.85;;;13.40;90.70;;;;;;4958257;28;20027;-65
2022/01/03 09:18:17;;;;;;;9.68;1.80;;;13.40;90.60;;;;;;4962452;28;20417;-65
2022/01/03 09:20:42;;;;;;;16.33;2.05;;;13.40;90.60;;;;;;4952855;28;20020;-65
2022/01/03 09:23:19;;;;;;;13.52;1.65;;;13.40;90.70;;;;;;4964393;28;20034;-65
2022/01/03 09:31:13;;;;;;;10.00;1.58;;;13.50;90.60;;;;;;4954524;28;20089;-64
2022/01/03 09:33:38;;;;;;;8.43;1.40;;;13.50;90.60;;;;;;4954395;28;20023;-64
2022/01/03 09:36:04;;;;;;;12.55;2.00;;;13.50;90.50;;;;;;4963126;28;20104;-65
2022/01/03 09:38:30;;;;;;;8.77;1.63;;;13.50;90.50;;;;;;4952018;28;20094;-64
2022/01/03 09:41:00;;;;;;;10.98;1.33;;;13.50;90.60;;;;;;4964627;28;20035;-64
2022/01/03 09:43:27;;;;;;;11.40;1.40;;;13.50;90.60;;;;;;4950847;28;20077;-64
2022/01/03 09:45:53;;;;;;;9.15;1.70;;;13.60;90.50;;;;;;4958449;28;20660;-65
2022/01/03 09:48:21;;;;;;;10.05;1.50;;;13.60;90.50;;;;;;4955706;28;20025;-65
2022/01/03 09:50:49;;;;;;;8.68;1.40;;;13.60;90.40;;;;;;4953059;28;20031;-64
2022/01/03 09:53:18;;;;;;;8.60;1.70;;;13.60;90.50;;;;;;4962770;28;20498;-65
2022/01/03 09:55:44;;;;;;;12.48;1.67;;;13.60;90.50;;;;;;4957159;28;20063;-65
2022/01/03 09:58:10;;;;;;;11.70;1.77;;;13.60;90.40;;;;;;4960803;28;20069;-64
2022/01/03 10:00:36;;;;;;;11.98;1.75;;;13.60;90.50;;;;;;4962261;28;20110;-64
2022/01/03 10:03:02;;;;;;;7.63;1.92;;;13.60;90.40;;;;;;4959133;28;20113;-64
2022/01/03 10:05:27;;;;;;;9.93;2.15;;;13.60;90.40;;;;;;4963115;28;20035;-64
2022/01/03 10:07:53;;;;;;;13.60;1.90;;;13.60;90.60;;;;;;4958847;28;20101;-64
2022/01/03 10:10:19;;;;;;;9.52;1.50;;;13.60;90.50;;;;;;4962166;28;20488;-64
2022/01/03 10:12:45;;;;;;;11.80;1.70;;;13.70;90.50;;;;;;4958356;28;20125;-64
2022/01/03 10:15:11;;;;;;;9.00;1.90;;;13.70;90.30;;;;;;4959001;28;20022;-65
2022/01/03 10:17:42;;;;;;;8.25;1.38;;;13.70;90.30;;;;;;4963683;28;20040;-65
2022/01/03 10:20:10;;;;;;;9.73;1.50;;;13.60;90.80;;;;;;4959182;28;20023;-64
2022/01/03 10:22:37;;;;;;;9.13;1.60;;;13.70;90.50;;;;;;4950450;28;20161;-64
2022/01/03 10:25:12;;;;;;;7.45;1.35;;;13.70;90.40;;;;;;4929802;28;20036;-64
2022/01/03 10:27:50;;;;;;;10.52;1.50;;;13.80;90.40;;;;;;4929627;28;20090;-65
2022/01/03 10:30:49;;;;;;;11.65;1.40;;;13.80;90.30;;;;;;4958015;28;20156;-64
2022/01/03 10:33:23;;;;;;;8.73;1.60;;;13.80;90.10;;;;;;5013826;28;20034;-64
2022/01/03 10:35:56;;;;;;;8.07;1.13;;;13.80;90.20;;;;;;5022005;28;20041;-64
2022/01/03 10:38:44;;;;;;;8.48;1.35;;;13.80;90.00;;;;;;5003034;28;20022;-64
2022/01/03 10:41:14;;;;;;;6.05;1.15;;;13.80;90.00;;;;;;5019160;28;20033;-65
2022/01/03 10:43:44;;;;;;;9.60;1.73;;;13.80;90.10;;;;;;5000739;28;20085;-64
2022/01/03 10:46:36;;;;;;;7.95;1.50;;;13.70;89.90;;;;;;5017315;28;20450;-65
2022/01/03 10:49:11;;;;;;;6.25;1.17;;;13.70;90.00;;;;;;4999202;28;20034;-64
2022/01/03 10:51:37;;;;;;;11.07;1.55;;;13.70;90.00;;;;;;5012054;28;20222;-64
2022/01/03 10:54:07;;;;;;;9.18;1.73;;;13.70;90.10;;;;;;5021730;28;20503;-64
2022/01/03 10:56:39;;;;;;;6.80;1.50;;;13.70;90.20;;;;;;5012784;28;20049;-64
2022/01/03 10:59:18;;;;;;;6.30;1.10;;;13.70;90.30;;;;;;5019071;28;20646;-64
2022/01/03 11:01:46;;;;;;;5.43;1.27;;;13.70;90.30;;;;;;5002805;28;20040;-65
2022/01/03 11:04:57;;;;;;;8.73;1.65;;;13.70;90.30;;;;;;5006199;28;20034;-65
2022/01/03 11:13:15;;;;;;;5.97;1.30;;;13.80;90.40;;;;;;4937962;28;20058;-65
2022/01/03 11:15:51;;;;;;;7.18;1.50;;;13.70;90.20;;;;;;4938020;28;20024;-65
2022/01/03 11:18:22;;;;;;;7.90;1.33;;;13.70;90.30;;;;;;4934604;28;20027;-66
2022/01/03 11:21:01;;;;;;;7.90;1.38;;;13.70;90.30;;;;;;4934989;28;20851;-65
2022/01/03 11:23:27;;;;;;;5.45;1.20;;;13.70;90.40;;;;;;4932511;28;20396;-65
2022/01/03 11:25:54;;;;;;;8.60;1.42;;;13.70;90.50;;;;;;4936378;28;20047;-65
2022/01/03 11:28:26;;;;;;;7.00;1.23;;;13.70;90.50;;;;;;4940944;28;20102;-65
2022/01/03 11:30:53;;;;;;;6.75;1.45;;;13.70;90.60;;;;;;4945581;28;20523;-65
2022/01/03 11:33:18;;;;;;;6.35;1.25;;;13.70;90.50;;;;;;4965151;28;20119;-65
2022/01/03 11:35:49;;;;;;;6.65;1.60;;;13.70;90.70;;;;;;4947128;28;20103;-68
2022/01/03 11:38:20;;;;;;;8.30;1.35;;;13.80;90.70;;;;;;4933611;28;20070;-65
2022/01/03 11:40:46;;;;;;;5.20;1.13;;;13.80;90.60;;;;;;4942942;28;20023;-65
2022/01/03 11:43:12;;;;;;;5.03;1.23;;;13.80;90.70;;;;;;4937109;28;20562;-65
2022/01/03 11:45:39;;;;;;;5.30;1.40;;;13.80;90.70;;;;;;4973867;28;20067;-65
2022/01/03 11:48:07;;;;;;;6.85;1.20;;;13.80;90.60;;;;;;4944515;28;20372;-65
2022/01/03 11:50:33;;;;;;;8.00;1.40;;;13.80;90.70;;;;;;4932685;28;20030;-65
2022/01/03 11:52:59;;;;;;;6.75;1.20;;;13.80;90.60;;;;;;4932561;28;20023;-66
2022/01/03 11:55:25;;;;;;;5.25;0.90;;;13.80;90.70;;;;;;4972034;28;20523;-64
2022/01/03 12:06:03;;;;;;;6.07;1.15;;;13.80;90.80;;;;;;4945370;28;20066;-64
2022/01/03 12:08:33;;;;;;;5.80;1.13;;;13.80;91.00;;;;;;4935346;28;20023;-64
2022/01/03 12:11:00;;;;;;;6.55;0.82;;;13.80;91.00;;;;;;4946628;28;20055;-64
2022/01/03 12:14:05;;;;;;;6.22;1.20;;;13.70;91.20;;;;;;4936668;28;20039;-65
2022/01/03 12:16:37;;;;;;;4.00;0.65;;;13.80;91.10;;;;;;5047718;28;20568;-64
2022/01/03 12:19:06;;;;;;;4.40;0.80;;;13.70;91.30;;;;;;5045267;28;20501;-65
2022/01/03 12:21:49;;;;;;;7.43;1.42;;;13.80;91.40;;;;;;5045075;28;20497;-65
2022/01/03 12:24:30;;;;;;;3.53;1.08;;;13.70;91.10;;;;;;5045105;28;20037;-65
2022/01/03 12:27:13;;;;;;;3.88;0.77;;;13.70;91.20;;;;;;5045568;28;20033;-65
2022/01/03 12:29:54;;;;;;;;;;;13.60;91.60;;;;;;5031575;28;20539;-65
2022/01/03 12:32:37;;;;;;;3.28;0.70;;;13.60;91.40;;;;;;5048481;28;20285;-66
2022/01/03 12:35:19;;;;;;;4.18;1.00;;;13.60;91.40;;;;;;5049233;28;20394;-65
2022/01/03 12:37:54;;;;;;;3.53;0.68;;;13.50;91.50;;;;;;5047100;28;20021;-65
2022/01/03 12:40:25;;;;;;;5.20;1.15;;;13.50;91.50;;;;;;5041935;28;20037;-65
2022/01/03 12:42:51;;;;;;;2.05;0.80;;;13.60;91.60;;;;;;5041327;28;20059;-65
2022/01/03 12:45:39;;;;;;;2.22;0.60;;;13.60;91.50;;;;;;5045205;28;20056;-66
2022/01/03 12:48:10;;;;;;;1.42;0.50;;;13.60;91.30;;;;;;5038847;28;20025;-65
2022/01/03 12:50:37;;;;;;;2.83;0.70;;;13.50;91.10;;;;;;5034227;28;20561;-65
2022/01/03 12:53:04;;;;;;;2.33;0.45;;;13.40;91.30;;;;;;4941739;28;20042;-65
2022/01/03 12:55:38;;;;;;;5.38;0.90;;;13.40;91.40;;;;;;4936406;28;20186;-65
2022/01/03 12:58:16;;;;;;;2.45;0.60;;;13.40;91.40;;;;;;4941265;28;20553;-66
2022/01/03 13:00:53;;;;;;;2.75;0.85;;;13.40;91.60;;;;;;4939690;28;20035;-65
2022/01/03 13:03:37;;;;;;;4.63;1.08;;;13.40;91.60;;;;;;4935636;28;20042;-65
2022/01/03 13:06:14;;;;;;;2.47;0.80;;;13.40;91.70;;;;;;4942764;28;20035;-65
2022/01/03 13:08:42;;;;;;;1.23;0.40;;;13.40;91.60;;;;;;4933697;28;20038;-65
2022/01/03 13:11:10;;;;;;;1.90;0.50;;;13.40;91.50;;;;;;4946268;28;20051;-66
2022/01/03 13:13:37;;;;;;;1.67;0.70;;;13.30;91.50;;;;;;4937099;29;20035;-66